Time;durP1;ratioP1;P1;durP2;ratioP2;P2;SDS_P1;SDS_P2;PMS_P1;PMS_P2;Temp;Humidity;BMP_temperature;BMP_pressure;BME280_temperature;BME280_humidity;BME280_pressure;Samples;Min_cycle;Max_cycle;Signal;HPM_P1;HPM_P2
2022/06/28 00:01:06;;;;;;;15.70;6.50;;;;;;;21.66;46.66;99125.29;105938;1276;97918;-68
2022/06/28 00:03:42;;;;;;;17.20;6.50;;;;;;;21.60;47.16;99127.95;105947;1276;98536;-69
2022/06/28 00:06:11;;;;;;;14.40;5.60;;;;;;;21.60;46.90;99128.48;105970;1276;110979;-69
2022/06/28 00:08:42;;;;;;;17.50;6.30;;;;;;;21.61;47.38;99129.03;105942;1276;98025;-70
2022/06/28 00:11:14;;;;;;;17.30;6.00;;;;;;;21.62;47.52;99132.11;105918;1276;108453;-68
2022/06/28 00:13:45;;;;;;;14.50;6.20;;;;;;;21.64;47.43;99133.80;105953;1276;97865;-68
2022/06/28 00:16:16;;;;;;;14.70;6.10;;;;;;;21.67;47.62;99138.55;105955;1276;96416;-68
2022/06/28 00:18:45;;;;;;;16.10;6.00;;;;;;;21.69;47.69;99140.33;105901;1276;111233;-68
2022/06/28 00:21:13;;;;;;;9.30;5.10;;;;;;;21.68;47.48;99144.86;105878;1276;97907;-66
2022/06/28 00:23:43;;;;;;;11.90;5.70;;;;;;;21.67;47.77;99148.15;105919;1278;108437;-69
2022/06/28 00:26:12;;;;;;;13.20;5.40;;;;;;;21.66;47.82;99150.43;105820;1276;97875;-67
2022/06/28 00:28:42;;;;;;;11.30;5.60;;;;;;;21.66;48.05;99157.91;105900;1276;97910;-67
2022/06/28 00:31:11;;;;;;;16.60;5.80;;;;;;;21.67;47.87;99158.36;105875;1276;111921;-69
2022/06/28 00:33:40;;;;;;;15.40;5.20;;;;;;;21.67;48.09;99151.94;105972;1276;97863;-68
2022/06/28 00:36:09;;;;;;;12.90;5.20;;;;;;;21.65;47.97;99154.80;105979;1276;108384;-66
2022/06/28 00:38:41;;;;;;;12.80;5.50;;;;;;;21.64;48.12;99155.52;105912;1276;97973;-66
2022/06/28 00:41:10;;;;;;;11.20;5.60;;;;;;;21.64;48.27;99161.34;105937;1276;95221;-68
2022/06/28 00:43:41;;;;;;;13.20;5.00;;;;;;;21.61;48.32;99161.41;105929;1276;113240;-69
2022/06/28 00:46:08;;;;;;;12.90;5.40;;;;;;;21.59;48.44;99162.91;105948;1276;98485;-69
2022/06/28 00:48:40;;;;;;;11.90;5.60;;;;;;;21.55;48.48;99162.59;105898;1274;108282;-71
2022/06/28 00:51:10;;;;;;;15.10;5.90;;;;;;;21.50;48.88;99156.88;105966;1276;97879;-70
2022/06/28 00:53:37;;;;;;;12.10;5.40;;;;;;;21.41;48.97;99155.63;105880;1276;97906;-69
2022/06/28 00:56:06;;;;;;;12.10;5.60;;;;;;;21.28;49.44;99158.00;105828;1276;112368;-69
2022/06/28 00:58:35;;;;;;;11.50;5.40;;;;;;;21.16;49.36;99155.39;105884;1276;97701;-68
2022/06/28 01:01:03;;;;;;;13.70;6.00;;;;;;;21.07;49.49;99155.80;105834;1276;108201;-69
2022/06/28 01:03:31;;;;;;;11.90;5.40;;;;;;;21.00;49.78;99150.65;105921;1276;97849;-70
2022/06/28 01:06:02;;;;;;;12.10;6.00;;;;;;;20.93;49.73;99150.00;105884;1276;97777;-68
2022/06/28 01:08:33;;;;;;;11.90;5.80;;;;;;;20.88;49.90;99146.39;105842;1276;112115;-69
2022/06/28 01:11:18;;;;;;;12.00;5.30;;;;;;;20.84;50.05;99144.67;105909;1276;97974;-70
2022/06/28 01:13:48;;;;;;;17.00;6.40;;;;;;;20.80;50.12;99145.70;105866;1277;106619;-70
2022/06/28 01:16:18;;;;;;;14.50;5.90;;;;;;;20.76;50.19;99150.68;105832;1278;97861;-69
2022/06/28 01:18:49;;;;;;;13.90;5.70;;;;;;;20.75;50.24;99152.48;105898;1276;97970;-66
2022/06/28 01:21:20;;;;;;;14.10;5.90;;;;;;;20.74;50.34;99150.91;105901;1276;110902;-69
2022/06/28 01:23:48;;;;;;;15.40;6.00;;;;;;;20.72;50.48;99149.13;105863;1276;98002;-70
2022/06/28 01:26:21;;;;;;;13.10;5.80;;;;;;;20.65;50.61;99148.20;105861;1276;108967;-70
2022/06/28 01:28:53;;;;;;;13.30;6.50;;;;;;;20.57;50.90;99145.02;105849;1276;97887;-70
2022/06/28 01:31:24;;;;;;;12.60;5.80;;;;;;;20.49;51.05;99147.15;105858;1276;97901;-69
2022/06/28 01:33:56;;;;;;;12.80;5.60;;;;;;;20.42;51.20;99155.38;105876;1276;111286;-69
2022/06/28 01:36:23;;;;;;;12.70;5.70;;;;;;;20.36;51.42;99155.43;105882;1276;98484;-70
2022/06/28 01:38:51;;;;;;;16.10;6.10;;;;;;;20.32;51.55;99151.63;105863;1276;107482;-68
2022/06/28 01:41:32;;;;;;;14.10;5.90;;;;;;;20.26;51.47;99149.91;105832;1277;97875;-70
2022/06/28 01:44:08;;;;;;;13.80;6.30;;;;;;;20.17;51.71;99152.51;105896;1276;97978;-68
2022/06/28 01:46:39;;;;;;;17.00;6.10;;;;;;;20.08;52.01;99150.26;106034;1277;111460;-69
2022/06/28 01:49:08;;;;;;;16.20;6.80;;;;;;;20.02;52.04;99151.72;105932;1277;97881;-67
2022/06/28 01:51:36;;;;;;;14.50;6.40;;;;;;;19.98;52.19;99151.71;105860;1276;108449;-69
2022/06/28 01:54:07;;;;;;;14.00;6.70;;;;;;;19.94;52.23;99151.66;105849;1277;97907;-67
2022/06/28 01:56:36;;;;;;;18.70;6.60;;;;;;;19.90;52.36;99151.33;105969;1277;95299;-67
2022/06/28 01:59:05;;;;;;;14.70;6.80;;;;;;;19.87;52.41;99149.34;105938;1277;112111;-68
2022/06/28 02:01:37;;;;;;;15.60;6.50;;;;;;;19.84;52.47;99146.07;105927;1276;95199;-68
2022/06/28 02:04:24;;;;;;;14.40;6.60;;;;;;;19.79;52.58;99145.50;105858;1276;109127;-69
2022/06/28 02:06:53;;;;;;;18.70;6.80;;;;;;;19.76;52.64;99143.17;105981;1276;97890;-70
2022/06/28 02:09:23;;;;;;;15.10;7.40;;;;;;;19.73;52.79;99138.80;105975;1276;95390;-68
2022/06/28 02:11:53;;;;;;;14.90;7.10;;;;;;;19.72;52.85;99131.48;105888;1276;112260;-67
2022/06/28 02:14:21;;;;;;;15.90;7.80;;;;;;;19.72;52.87;99129.05;105903;1276;97868;-68
2022/06/28 02:16:50;;;;;;;14.90;7.00;;;;;;;19.70;52.94;99129.99;105882;1276;108468;-69
2022/06/28 02:19:19;;;;;;;16.40;7.00;;;;;;;19.66;53.11;99128.38;105906;1276;97996;-69
2022/06/28 02:21:47;;;;;;;13.00;6.60;;;;;;;19.65;53.21;99126.52;105998;1276;98051;-70
2022/06/28 02:24:16;;;;;;;15.40;6.40;;;;;;;19.65;53.34;99128.13;105972;1276;112415;-69
2022/06/28 02:26:44;;;;;;;16.80;6.90;;;;;;;19.64;53.51;99124.48;105960;1276;97871;-67
2022/06/28 02:29:12;;;;;;;18.90;6.80;;;;;;;19.62;53.65;99131.14;106008;1276;108283;-71
2022/06/28 02:31:40;;;;;;;12.00;6.10;;;;;;;19.60;53.72;99139.50;106038;1276;97970;-69
2022/06/28 02:40:21;;;;;;;15.00;6.20;;;;;;;19.58;54.02;99149.00;106009;1276;97792;-70
2022/06/28 02:42:33;;;;;;;17.30;7.10;;;;;;;19.69;54.29;99154.92;105810;1277;108075;-68
2022/06/28 02:45:05;;;;;;;20.80;7.00;;;;;;;19.68;54.14;99152.24;105799;1277;97897;-70
2022/06/28 02:47:32;;;;;;;15.70;6.80;;;;;;;19.66;54.23;99146.75;105875;1277;97878;-69
2022/06/28 02:50:03;;;;;;;16.70;6.80;;;;;;;19.67;54.39;99149.52;105866;1277;111972;-73
2022/06/28 02:52:30;;;;;;;12.40;6.00;;;;;;;19.70;54.42;99150.66;105895;1277;97916;-70
2022/06/28 02:54:58;;;;;;;15.90;7.00;;;;;;;19.72;54.53;99155.05;105860;1277;107706;-69
2022/06/28 02:57:27;;;;;;;16.00;7.30;;;;;;;19.75;54.60;99155.52;105851;1276;97953;-69
2022/06/28 03:00:03;;;;;;;20.30;8.20;;;;;;;19.77;54.61;99156.86;105883;1276;95277;-67
2022/06/28 03:02:31;;;;;;;21.70;8.80;;;;;;;19.78;54.68;99154.42;105843;1276;111441;-70
2022/06/28 03:05:03;;;;;;;18.50;8.10;;;;;;;19.79;54.68;99152.02;105902;1276;97085;-70
2022/06/28 03:07:31;;;;;;;17.80;8.60;;;;;;;19.79;54.77;99151.98;105906;1276;107795;-68
2022/06/28 03:09:59;;;;;;;21.20;9.40;;;;;;;19.80;54.83;99157.61;105861;1276;96589;-69
2022/06/28 03:12:30;;;;;;;18.90;8.20;;;;;;;19.81;54.83;99162.40;105892;1276;97850;-69
2022/06/28 03:14:59;;;;;;;20.80;8.80;;;;;;;19.82;54.85;99162.87;105860;1276;111974;-68
2022/06/28 03:17:29;;;;;;;18.70;8.50;;;;;;;19.81;54.98;99165.10;105890;1276;97963;-69
2022/06/28 03:19:59;;;;;;;20.70;8.90;;;;;;;19.81;54.98;99170.30;105941;1276;108399;-69
2022/06/28 03:22:29;;;;;;;19.90;9.00;;;;;;;19.81;55.06;99170.13;105903;1276;97878;-67
2022/06/28 03:24:57;;;;;;;17.10;8.90;;;;;;;19.82;55.04;99168.40;105893;1276;97876;-69
2022/06/28 03:27:26;;;;;;;19.50;9.40;;;;;;;19.81;55.20;99169.11;105918;1276;112719;-69
2022/06/28 03:29:54;;;;;;;20.30;8.80;;;;;;;19.79;55.19;99166.74;105903;1276;97934;-69
2022/06/28 03:32:25;;;;;;;19.70;9.40;;;;;;;19.77;55.24;99168.58;105886;1276;108309;-70
2022/06/28 03:34:54;;;;;;;20.80;8.50;;;;;;;19.78;55.32;99171.00;105896;1276;98142;-68
2022/06/28 03:37:22;;;;;;;19.60;9.20;;;;;;;19.79;55.47;99176.03;105920;1276;97088;-69
2022/06/28 03:39:51;;;;;;;19.60;9.90;;;;;;;19.81;55.51;99180.75;105869;1276;112340;-68
2022/06/28 03:42:23;;;;;;;20.20;9.50;;;;;;;19.82;55.45;99184.23;105904;1276;95292;-70
2022/06/28 03:44:52;;;;;;;20.80;9.30;;;;;;;19.83;55.56;99183.83;105856;1276;107807;-69
2022/06/28 03:47:21;;;;;;;20.50;9.50;;;;;;;19.83;55.66;99181.59;105715;1276;211224;-69
2022/06/28 03:49:51;;;;;;;20.80;9.50;;;;;;;19.85;55.78;99184.09;105899;1276;97878;-70
2022/06/28 03:52:19;;;;;;;18.90;9.60;;;;;;;19.87;55.66;99185.88;105919;1276;111486;-70
2022/06/28 03:54:47;;;;;;;19.00;9.60;;;;;;;19.88;55.85;99184.86;105962;1276;97967;-68
2022/06/28 03:57:14;;;;;;;21.30;9.70;;;;;;;19.90;55.86;99187.36;105866;1276;107631;-69
2022/06/28 03:59:42;;;;;;;19.70;9.60;;;;;;;19.92;55.93;99193.98;105895;1276;97969;-69
2022/06/28 04:02:10;;;;;;;19.10;9.50;;;;;;;19.92;55.80;99193.04;105896;1276;97891;-69
2022/06/28 04:04:39;;;;;;;19.50;9.70;;;;;;;19.89;55.72;99188.67;105884;1276;111376;-69
2022/06/28 04:07:07;;;;;;;19.00;9.20;;;;;;;19.87;55.92;99192.11;105908;1276;97909;-68
2022/06/28 04:09:35;;;;;;;18.90;9.20;;;;;;;19.89;56.08;99197.52;105890;1276;108333;-69
2022/06/28 04:12:07;;;;;;;18.30;8.60;;;;;;;19.92;56.00;99200.96;105836;1276;96311;-70
2022/06/28 04:14:36;;;;;;;19.50;8.30;;;;;;;19.93;56.12;99199.58;105866;1276;97932;-70
2022/06/28 04:17:04;;;;;;;16.70;8.20;;;;;;;19.96;56.24;99195.16;105913;1276;111448;-71
2022/06/28 04:19:33;;;;;;;21.60;8.90;;;;;;;19.99;56.09;99192.30;105913;1276;97880;-67
2022/06/28 04:22:01;;;;;;;14.80;7.60;;;;;;;20.00;56.16;99192.17;105866;1276;107737;-69
2022/06/28 04:24:29;;;;;;;21.00;9.60;;;;;;;20.03;56.09;99194.60;105900;1276;97887;-69
2022/06/28 04:26:59;;;;;;;21.20;9.10;;;;;;;20.04;56.11;99190.99;105947;1276;95205;-70
2022/06/28 04:29:27;;;;;;;20.80;9.30;;;;;;;20.07;56.25;99190.02;105974;1276;112564;-68
2022/06/28 04:31:56;;;;;;;24.30;9.10;;;;;;;20.10;56.46;99186.81;106000;1276;96267;-71
2022/06/28 04:34:34;;;;;;;21.80;8.90;;;;;;;20.15;56.41;99186.80;105878;1276;107577;-70
2022/06/28 04:37:02;;;;;;;17.10;7.40;;;;;;;20.19;56.52;99185.56;105914;1276;97970;-70
2022/06/28 04:39:31;;;;;;;20.90;7.60;;;;;;;20.24;56.64;99182.73;105907;1276;97892;-68
2022/06/28 04:42:02;;;;;;;21.00;8.50;;;;;;;20.28;56.62;99175.23;105933;1276;110074;-71
2022/06/28 04:44:33;;;;;;;18.80;8.30;;;;;;;20.34;56.85;99169.55;105904;1276;97912;-69
2022/06/28 04:47:03;;;;;;;18.90;8.30;;;;;;;20.41;56.93;99171.68;105901;1276;107805;-69
2022/06/28 04:49:31;;;;;;;17.60;7.70;;;;;;;20.49;57.01;99172.58;105896;1276;97331;-69
2022/06/28 04:52:01;;;;;;;17.60;6.90;;;;;;;20.56;56.93;99171.23;105914;1276;97889;-68
2022/06/28 04:54:28;;;;;;;19.30;7.50;;;;;;;20.65;56.96;99170.06;105909;1276;111502;-70
2022/06/28 04:56:57;;;;;;;18.30;6.80;;;;;;;20.73;57.01;99166.29;105984;1276;98767;-72
2022/06/28 04:59:25;;;;;;;13.20;6.00;;;;;;;20.80;56.88;99167.97;105968;1276;107890;-71
2022/06/28 05:01:53;;;;;;;12.80;5.90;;;;;;;20.88;56.98;99165.67;105963;1276;97970;-71
2022/06/28 05:04:22;;;;;;;14.70;6.00;;;;;;;20.96;56.91;99164.02;105955;1276;97910;-71
2022/06/28 05:06:50;;;;;;;14.10;6.00;;;;;;;21.04;57.00;99161.20;105941;1276;111364;-72
2022/06/28 05:09:18;;;;;;;17.80;6.50;;;;;;;21.12;57.01;99159.73;105942;1276;95875;-72
2022/06/28 05:12:04;;;;;;;17.10;6.30;;;;;;;21.19;57.15;99160.85;105904;1276;107798;-71
2022/06/28 05:14:33;;;;;;;13.30;5.90;;;;;;;21.25;57.20;99159.20;105981;1276;98613;-71
2022/06/28 05:17:01;;;;;;;12.60;6.30;;;;;;;21.31;57.17;99158.20;105990;1276;97996;-71
2022/06/28 05:19:33;;;;;;;14.20;5.50;;;;;;;21.37;57.35;99160.42;105904;1276;111598;-71
2022/06/28 05:22:03;;;;;;;13.40;6.10;;;;;;;21.44;57.24;99156.61;105926;1276;95938;-71
2022/06/28 05:24:30;;;;;;;16.30;6.40;;;;;;;21.52;57.14;99156.83;105999;1276;107757;-72
2022/06/28 05:27:00;;;;;;;12.90;5.90;;;;;;;21.62;57.16;99157.96;105973;1276;98022;-73
2022/06/28 05:29:28;;;;;;;14.90;5.70;;;;;;;21.72;57.21;99153.37;105959;1276;95299;-72
2022/06/28 05:31:58;;;;;;;14.60;6.30;;;;;;;21.82;57.46;99154.98;105895;1276;111343;-71
2022/06/28 05:34:26;;;;;;;13.50;5.80;;;;;;;21.92;57.30;99154.54;105978;1276;97861;-72
2022/06/28 05:36:54;;;;;;;13.80;5.90;;;;;;;22.04;57.25;99152.62;105989;1276;107736;-72
2022/06/28 05:39:22;;;;;;;12.60;6.00;;;;;;;22.16;57.13;99151.36;106021;1276;97966;-71
2022/06/28 05:41:49;;;;;;;15.50;5.90;;;;;;;22.29;56.98;99150.14;105945;1276;97865;-71
2022/06/28 05:44:17;;;;;;;12.60;5.40;;;;;;;22.44;57.32;99148.58;105933;1276;111399;-71
2022/06/28 05:46:45;;;;;;;14.50;5.50;;;;;;;22.58;56.95;99148.12;105895;1278;95739;-71
2022/06/28 05:49:13;;;;;;;9.70;4.90;;;;;;;22.71;57.07;99147.69;105988;1276;107784;-71
2022/06/28 05:51:41;;;;;;;15.30;5.10;;;;;;;22.87;57.07;99151.52;106023;1276;97763;-70
2022/06/28 05:54:08;;;;;;;13.40;5.60;;;;;;;23.01;56.90;99151.73;106012;1276;97873;-71
2022/06/28 05:56:36;;;;;;;13.30;4.90;;;;;;;23.15;56.99;99144.50;106016;1276;111298;-71
2022/06/28 05:59:04;;;;;;;11.40;4.80;;;;;;;23.24;56.82;99144.91;106004;1276;97742;-72
2022/06/28 06:01:34;;;;;;;11.00;4.90;;;;;;;23.34;56.58;99145.06;105962;1276;107722;-72
2022/06/28 06:04:03;;;;;;;11.00;5.30;;;;;;;23.41;56.60;99148.61;105982;1276;97951;-71
2022/06/28 06:06:31;;;;;;;11.50;4.90;;;;;;;23.51;56.44;99148.29;106013;1276;95939;-71
2022/06/28 06:08:59;;;;;;;14.90;5.10;;;;;;;23.64;56.47;99150.83;106036;1276;111378;-72
2022/06/28 06:11:27;;;;;;;11.80;5.30;;;;;;;23.76;56.47;99145.50;106004;1276;97927;-72
2022/06/28 06:13:55;;;;;;;10.30;5.20;;;;;;;23.88;56.22;99142.70;106015;1276;107779;-74
2022/06/28 06:16:23;;;;;;;10.00;5.00;;;;;;;24.00;56.29;99140.95;106030;1276;97756;-72
2022/06/28 06:18:52;;;;;;;12.00;5.40;;;;;;;24.13;56.02;99141.61;106029;1276;97957;-71
2022/06/28 06:21:20;;;;;;;10.60;5.10;;;;;;;24.24;56.06;99136.55;106032;1276;110549;-72
2022/06/28 06:23:48;;;;;;;10.80;5.40;;;;;;;24.37;55.93;99137.44;106037;1276;97881;-70
2022/06/28 06:26:16;;;;;;;11.30;4.90;;;;;;;24.49;55.83;99138.63;106030;1276;107781;-72
2022/06/28 06:28:43;;;;;;;13.40;5.40;;;;;;;24.60;55.55;99136.50;105983;1276;98025;-72
2022/06/28 06:31:13;;;;;;;12.10;4.70;;;;;;;24.70;55.42;99132.63;105945;1276;97980;-73
2022/06/28 06:33:41;;;;;;;11.40;4.90;;;;;;;24.82;55.33;99132.59;105918;1276;111405;-69
2022/06/28 06:36:10;;;;;;;10.50;4.60;;;;;;;24.94;55.35;99134.80;106022;1276;95213;-72
2022/06/28 06:38:39;;;;;;;10.70;5.10;;;;;;;25.04;55.18;99131.48;106036;1276;107703;-72
2022/06/28 06:41:07;;;;;;;16.80;5.80;;;;;;;25.17;55.09;99130.27;105979;1278;97887;-70
2022/06/28 06:43:34;;;;;;;11.50;5.20;;;;;;;25.29;55.01;99129.74;105888;1276;97975;-70
2022/06/28 06:46:02;;;;;;;12.30;5.30;;;;;;;25.38;54.76;99126.41;105945;1274;111436;-68
2022/06/28 06:48:30;;;;;;;11.80;5.30;;;;;;;25.51;54.58;99123.06;105986;1276;95209;-67
2022/06/28 06:50:59;;;;;;;11.50;5.10;;;;;;;25.68;54.58;99128.23;105926;1276;107695;-71
2022/06/28 06:53:29;;;;;;;8.90;4.90;;;;;;;25.86;54.38;99127.77;105945;1276;97901;-70
2022/06/28 06:55:58;;;;;;;14.80;5.20;;;;;;;26.04;54.33;99131.19;105985;1276;97964;-71
2022/06/28 06:58:26;;;;;;;12.90;5.10;;;;;;;26.19;53.99;99127.64;105931;1276;111503;-70
2022/06/28 07:00:54;;;;;;;10.60;5.00;;;;;;;26.36;54.05;99129.52;105948;1276;98139;-71
2022/06/28 07:03:22;;;;;;;7.70;4.70;;;;;;;26.53;53.82;99129.57;105874;1276;107987;-72
2022/06/28 07:05:50;;;;;;;10.30;4.80;;;;;;;26.70;53.79;99128.83;105961;1276;95302;-71
2022/06/28 07:08:18;;;;;;;13.00;4.50;;;;;;;26.93;53.40;99130.35;105984;1276;97956;-71
2022/06/28 07:10:45;;;;;;;12.40;4.90;;;;;;;27.19;53.44;99124.89;106021;1276;111512;-70
2022/06/28 07:13:15;;;;;;;12.10;4.50;;;;;;;27.52;53.30;99128.64;105947;1276;98012;-70
2022/06/28 07:15:43;;;;;;;9.50;5.10;;;;;;;27.83;53.06;99128.10;105976;1276;107937;-71
2022/06/28 07:18:10;;;;;;;10.60;4.70;;;;;;;28.14;53.02;99131.17;105982;1276;98056;-71
2022/06/28 07:20:38;;;;;;;8.60;4.50;;;;;;;28.35;52.61;99133.20;106078;1276;97898;-71
2022/06/28 07:23:08;;;;;;;8.50;4.50;;;;;;;28.57;52.31;99129.58;106011;1276;111520;-72
2022/06/28 07:25:35;;;;;;;10.70;4.90;;;;;;;28.86;52.11;99128.45;106101;1275;98232;-71
2022/06/28 07:28:03;;;;;;;8.30;4.70;;;;;;;29.19;51.89;99131.86;105970;1276;107705;-71
2022/06/28 07:30:31;;;;;;;9.20;4.60;;;;;;;29.41;51.56;99130.49;105985;1276;95266;-71
2022/06/28 07:32:59;;;;;;;10.10;4.90;;;;;;;29.85;51.33;99128.85;106068;1276;97945;-71
2022/06/28 07:35:30;;;;;;;12.40;4.90;;;;;;;30.57;50.89;99132.05;106007;1276;112154;-70
2022/06/28 07:37:59;;;;;;;13.20;4.40;;;;;;;31.70;50.37;99132.33;105955;1276;98135;-70
2022/06/28 07:40:27;;;;;;;8.40;4.30;;;;;;;32.73;49.85;99140.16;105979;1276;106946;-71
2022/06/28 07:42:55;;;;;;;10.80;4.60;;;;;;;33.51;49.49;99136.21;106042;1276;97956;-70
2022/06/28 07:45:23;;;;;;;9.30;4.50;;;;;;;34.36;48.81;99132.90;105981;1279;97886;-71
2022/06/28 07:47:50;;;;;;;11.80;4.70;;;;;;;35.30;48.88;99138.57;105913;1276;110948;-71
2022/06/28 07:53:08;;;;;;;12.50;4.40;;;;;;;36.89;47.92;99144.48;105964;1279;107730;-70
2022/06/28 07:55:36;;;;;;;10.80;4.40;;;;;;;37.12;47.05;99142.51;105928;1278;98320;-70
2022/06/28 07:58:04;;;;;;;11.90;4.70;;;;;;;37.50;47.02;99139.94;105871;1277;95185;-70
2022/06/28 08:00:33;;;;;;;12.30;4.60;;;;;;;37.86;46.12;99143.93;105856;1278;111983;-71
2022/06/28 08:03:03;;;;;;;9.50;4.00;;;;;;;38.13;45.25;99142.06;105979;1276;95658;-71
2022/06/28 08:05:32;;;;;;;9.40;4.00;;;;;;;38.78;45.59;99142.91;105959;1276;107786;-71
2022/06/28 08:08:00;;;;;;;8.90;4.20;;;;;;;39.15;44.68;99145.21;106021;1276;97976;-70
2022/06/28 08:10:28;;;;;;;8.60;4.70;;;;;;;39.27;43.45;99145.71;106080;1277;97942;-71
2022/06/28 08:12:55;;;;;;;8.60;4.20;;;;;;;39.70;43.21;99142.68;106038;1279;111403;-71
2022/06/28 08:15:23;;;;;;;8.80;4.20;;;;;;;40.08;42.70;99144.86;105934;1279;95738;-71
2022/06/28 08:17:51;;;;;;;7.70;3.80;;;;;;;40.40;42.48;99148.29;105844;1277;107907;-71
2022/06/28 08:20:19;;;;;;;10.80;4.30;;;;;;;40.50;41.32;99146.79;105970;1276;98999;-71
2022/06/28 08:22:48;;;;;;;10.40;4.50;;;;;;;40.40;40.72;99144.50;105987;1276;97850;-70
2022/06/28 08:25:16;;;;;;;6.90;3.90;;;;;;;40.78;40.46;99142.69;105958;1276;111212;-70
2022/06/28 08:27:48;;;;;;;6.50;3.90;;;;;;;41.32;40.18;99141.77;106037;1276;95723;-74
2022/06/28 08:30:16;;;;;;;11.50;3.80;;;;;;;41.64;39.52;99142.08;106048;1276;107698;-71
2022/06/28 08:32:45;;;;;;;5.40;3.50;;;;;;;42.07;38.94;99139.17;106039;1276;97899;-71
2022/06/28 08:35:15;;;;;;;7.50;3.70;;;;;;;42.53;38.51;99136.98;106083;1276;97965;-71
2022/06/28 08:37:46;;;;;;;11.90;4.80;;;;;;;42.89;38.01;99134.63;105974;1276;112115;-71
2022/06/28 08:40:25;;;;;;;11.60;4.30;;;;;;;43.02;37.33;99134.70;105998;1276;98539;-72
2022/06/28 08:43:00;;;;;;;10.30;4.40;;;;;;;42.71;36.48;99128.14;105919;1276;107792;-70
2022/06/28 08:45:35;;;;;;;8.80;3.90;;;;;;;42.81;36.27;99123.08;105943;1276;95295;-72
2022/06/28 08:48:25;;;;;;;7.80;3.70;;;;;;;42.83;35.64;99121.34;105995;1276;97875;-71
2022/06/28 08:50:55;;;;;;;8.90;3.60;;;;;;;42.66;34.97;99119.91;106011;1276;111360;-70
2022/06/28 08:53:24;;;;;;;11.40;3.90;;;;;;;42.78;34.79;99115.88;105972;1277;97717;-71
2022/06/28 08:55:52;;;;;;;5.60;3.90;;;;;;;42.72;34.16;99115.38;105986;1276;108171;-70
2022/06/28 08:58:22;;;;;;;6.30;3.30;;;;;;;42.45;33.37;99112.19;105874;1276;98104;-71
2022/06/28 09:00:51;;;;;;;8.50;4.00;;;;;;;42.22;33.03;99109.02;105959;1276;97861;-71
2022/06/28 09:03:19;;;;;;;7.60;3.60;;;;;;;42.42;32.97;99107.30;105858;1278;111206;-71
2022/06/28 09:05:47;;;;;;;7.20;4.00;;;;;;;42.63;32.61;99098.67;105884;1278;98396;-70
2022/06/28 09:08:17;;;;;;;9.50;4.00;;;;;;;42.66;32.27;99099.35;105910;1278;108203;-71
2022/06/28 09:10:45;;;;;;;5.50;3.90;;;;;;;42.60;31.80;99097.56;105861;1276;97986;-71
2022/06/28 09:13:21;;;;;;;6.70;3.90;;;;;;;42.69;31.67;99090.51;105889;1278;97856;-71
2022/06/28 09:15:48;;;;;;;6.20;3.50;;;;;;;42.67;31.26;99091.35;105972;1276;111502;-72
2022/06/28 09:18:19;;;;;;;5.40;3.50;;;;;;;42.51;30.93;99084.59;106011;1276;97016;-71
2022/06/28 09:20:55;;;;;;;7.00;3.70;;;;;;;42.16;30.26;99085.92;105994;1276;107705;-71
2022/06/28 09:23:27;;;;;;;6.70;3.50;;;;;;;41.78;30.10;99088.19;105985;1276;97863;-71
2022/06/28 09:26:03;;;;;;;10.90;4.00;;;;;;;41.26;29.39;99086.39;105992;1278;97983;-70
2022/06/28 09:28:33;;;;;;;9.80;4.20;;;;;;;40.80;29.43;99090.63;106012;1276;111406;-70
2022/06/28 09:31:23;;;;;;;8.20;3.70;;;;;;;40.75;28.89;99087.49;106020;1276;98433;-70
2022/06/28 09:33:52;;;;;;;;;;;;;;;40.35;28.67;99089.60;106003;1276;108559;-71
2022/06/28 09:36:20;;;;;;;7.40;4.00;;;;;;;39.82;28.52;99092.70;106061;1276;97890;-72
2022/06/28 09:38:48;;;;;;;5.90;3.60;;;;;;;39.57;28.21;99089.90;106089;1276;96572;-71
2022/06/28 09:41:30;;;;;;;11.60;4.10;;;;;;;39.29;28.02;99092.78;106015;1276;111400;-72
2022/06/28 09:44:03;;;;;;;9.50;4.40;;;;;;;39.08;28.23;99083.02;105926;1277;98486;-71
2022/06/28 09:46:33;;;;;;;9.00;3.90;;;;;;;39.07;28.32;99078.54;106000;1276;107802;-71
2022/06/28 09:49:06;;;;;;;5.60;3.60;;;;;;;39.10;28.29;99072.10;105975;1276;97985;-69
2022/06/28 09:51:37;;;;;;;7.50;3.80;;;;;;;39.00;28.06;99069.80;106060;1276;97850;-71
2022/06/28 09:54:09;;;;;;;6.20;3.50;;;;;;;38.78;28.35;99072.36;106069;1276;112671;-71
2022/06/28 09:56:54;;;;;;;5.90;3.60;;;;;;;38.78;28.08;99073.14;105990;1276;98521;-70
2022/06/28 09:59:26;;;;;;;9.50;4.20;;;;;;;38.74;28.03;99074.92;105894;1276;107539;-70
2022/06/28 10:01:55;;;;;;;;;;;;;;;38.80;28.03;99073.57;105966;1276;97797;-71
2022/06/28 10:04:27;;;;;;;8.40;3.70;;;;;;;38.67;28.04;99078.09;105993;1276;98021;-72
2022/06/28 10:06:56;;;;;;;10.30;3.90;;;;;;;38.53;27.47;99076.83;105992;1276;111476;-70
2022/06/28 10:09:23;;;;;;;6.70;3.70;;;;;;;38.26;27.54;99073.13;106005;1276;98517;-70
2022/06/28 10:17:41;;;;;;;10.10;4.00;;;;;;;37.08;26.94;99071.44;106019;1276;97927;-70
2022/06/28 10:20:15;;;;;;;7.70;3.70;;;;;;;36.70;27.24;99074.04;105971;1276;111131;-70
2022/06/28 10:22:43;;;;;;;6.20;3.70;;;;;;;36.31;27.07;99063.60;105997;1276;96470;-70
2022/06/28 10:25:16;;;;;;;10.40;4.00;;;;;;;36.09;27.11;99054.70;106003;1276;107740;-70
2022/06/28 10:27:50;;;;;;;5.00;3.60;;;;;;;36.05;27.32;99055.67;105995;1276;98048;-71
2022/06/28 10:30:26;;;;;;;5.20;3.60;;;;;;;35.95;27.18;99056.39;105973;1277;98592;-70
2022/06/28 10:33:04;;;;;;;8.80;4.10;;;;;;;35.65;26.70;99061.40;106002;1276;110056;-71
2022/06/28 10:35:32;;;;;;;6.70;3.70;;;;;;;35.25;26.93;99060.56;106034;1276;97958;-70
2022/06/28 10:38:09;;;;;;;6.90;4.00;;;;;;;35.03;27.13;99062.52;106000;1276;107716;-70
2022/06/28 10:40:49;;;;;;;7.70;3.90;;;;;;;34.81;27.01;99066.16;105990;1276;97933;-69
2022/06/28 10:43:26;;;;;;;7.30;3.70;;;;;;;34.59;27.10;99065.00;106009;1276;97028;-69
2022/06/28 10:46:05;;;;;;;7.90;3.60;;;;;;;34.54;27.35;99061.72;105852;1277;111413;-70
2022/06/28 10:48:50;;;;;;;7.00;3.20;;;;;;;34.55;27.25;99063.50;105904;1278;97985;-70
2022/06/28 10:51:20;;;;;;;4.90;3.60;;;;;;;34.55;27.22;99061.27;105963;1276;107826;-71
2022/06/28 10:54:09;;;;;;;8.70;4.00;;;;;;;34.56;27.46;99061.29;105880;1277;98401;-70
2022/06/28 10:56:43;;;;;;;8.80;3.70;;;;;;;34.53;27.44;99062.59;105900;1277;97754;-71
2022/06/28 10:59:17;;;;;;;7.30;3.80;;;;;;;34.56;27.64;99062.94;106008;1276;112171;-71
2022/06/28 11:01:51;;;;;;;9.20;3.60;;;;;;;34.64;27.65;99063.91;106001;1276;97984;-71
2022/06/28 11:04:18;;;;;;;9.00;4.00;;;;;;;34.59;27.20;99069.14;105930;1277;107777;-72
2022/06/28 11:07:22;;;;;;;9.50;3.90;;;;;;;34.40;27.28;99069.42;105996;1276;97787;-70
2022/06/28 11:10:06;;;;;;;7.30;3.80;;;;;;;34.31;27.38;99066.67;105844;1277;97769;-71
2022/06/28 11:12:35;;;;;;;8.60;3.60;;;;;;;34.15;27.27;99066.15;105981;1276;111013;-75
2022/06/28 11:15:11;;;;;;;9.30;4.10;;;;;;;33.92;27.38;99062.98;105977;1276;97844;-72
2022/06/28 11:17:42;;;;;;;8.30;4.00;;;;;;;33.68;27.34;99058.92;105932;1276;108194;-71
2022/06/28 11:20:21;;;;;;;6.00;3.90;;;;;;;33.61;27.47;99063.52;105993;1276;95278;-73
2022/06/28 11:22:52;;;;;;;6.80;3.70;;;;;;;33.63;27.78;99062.44;105977;1276;98557;-73
2022/06/28 11:25:23;;;;;;;8.20;4.00;;;;;;;33.66;27.81;99064.94;105940;1277;111511;-71
2022/06/28 11:27:58;;;;;;;7.10;3.60;;;;;;;33.64;27.64;99061.11;105899;1276;97988;-73
2022/06/28 11:30:28;;;;;;;8.80;3.70;;;;;;;33.70;28.01;99061.42;105872;1277;107477;-71
2022/06/28 11:32:59;;;;;;;8.30;3.30;;;;;;;33.79;27.90;99059.02;105975;1276;97108;-70
2022/06/28 11:35:30;;;;;;;8.50;3.80;;;;;;;33.91;28.06;99054.80;106037;1276;98112;-72
2022/06/28 11:38:07;;;;;;;5.70;3.60;;;;;;;33.95;27.88;99050.48;106011;1276;111528;-71
2022/06/28 11:40:44;;;;;;;9.20;4.20;;;;;;;33.97;27.83;99049.16;105991;1277;98318;-71
2022/06/28 11:43:14;;;;;;;5.50;3.60;;;;;;;33.96;27.90;99053.81;105981;1276;107736;-73
2022/06/28 11:45:48;;;;;;;7.00;3.60;;;;;;;33.91;27.80;99050.50;105918;1278;96727;-71